Strona główna
METAR-TAF:

METAR-TAF

Lotnisko :

Port lotniczy Billund

Billund, Dania

Szerokość geograficzna: 55-44N, Długość geograficzna: 009-10E, wysokość: 75 m

Aktualna obserwacja pogody

Raport powstał 29 minut temu, godzina 05:50 UTC
Wiatr 3 kt od zachód
Temperatura 14°C
Wilgotność 63%
Ciśnienie 1029 hPa
Widzialność 10 km lub więcej

METAR: EKBI 010550Z AUTO 28003KT 9999 NCD 14/07 Q1029

czas: 08:19 (06:19 UTC)

Prognoza

Raport powstał 1 godzina i 12 minut temu, godzina 05:07 UTC
Prognoza ważna od 01 godzina 06 UTC do 02 godzina 06 UTC
Wiatr 5 kt od wschodnio-północny wschód
Widzialność 10 km lub więcej
Brak chmur poniżej 1500 m i brak chmur cumulonimbus

TAF: EKBI 010507Z 0106/0206 07005KT CAVOK

Obserwacja i prognoza pogody dla ponad 4000 lotnisk (raport METAR i TAF).

Dostępne stacje oznaczono żółtymi i czerwonymi punktami na mapie.

Najedź kursorem aby zobaczyć nazwę stacji.

Kliknij aby zobaczyć obserwacje i prognozy pogody.

Aby zmienić mapę: kliknij na zielony przycisk z czarnym krzyżykiem, aby powiększyć; na zielony przycisk z myślnikiem, aby pomniejszyć; na zielone strzałki, aby przejść do map sąsiednich.


METAR-TAF: